Time;durP1;ratioP1;P1;durP2;ratioP2;P2;SDS_P1;SDS_P2;PMS_P1;PMS_P2;Temp;Humidity;BMP_temperature;BMP_pressure;BME280_temperature;BME280_humidity;BME280_pressure;Samples;Min_cycle;Max_cycle;Signal;HPM_P1;HPM_P2
2023/09/01 00:00:15;;;;;;;6.43;1.92;;;14.20;99.90;;;13.82;100.00;97315.50;4967113;28;20097;-78
2023/09/01 00:02:42;;;;;;;4.45;2.33;;;14.20;99.90;;;13.80;100.00;97305.19;4985794;28;20069;-78
2023/09/01 00:05:10;;;;;;;5.30;2.08;;;14.20;99.90;;;13.88;100.00;97299.50;4982719;28;20046;-78
2023/09/01 00:07:37;;;;;;;4.75;2.40;;;14.20;99.90;;;13.88;100.00;97303.88;4971707;28;20134;-78
2023/09/01 00:10:06;;;;;;;2.90;1.75;;;14.20;99.90;;;13.91;100.00;97307.16;4983966;28;20410;-78
2023/09/01 00:12:33;;;;;;;8.20;2.80;;;14.20;99.90;;;13.90;100.00;97302.03;4986931;28;20057;-78
2023/09/01 00:15:00;;;;;;;6.70;2.78;;;14.20;99.90;;;13.94;100.00;97300.91;4987814;28;20050;-78
2023/09/01 00:17:27;;;;;;;5.32;2.75;;;14.20;99.90;;;13.91;100.00;97307.16;4983487;28;20058;-78
2023/09/01 00:19:56;;;;;;;4.70;3.33;;;14.20;99.90;;;13.90;100.00;97305.47;5000810;28;21092;-78
2023/09/01 00:22:23;;;;;;;6.55;2.65;;;14.30;99.90;;;13.96;100.00;97302.50;4985466;28;20108;-79
2023/09/01 00:24:52;;;;;;;6.20;3.15;;;14.30;99.90;;;13.98;100.00;97308.47;4982795;28;20145;-79
2023/09/01 00:27:19;;;;;;;5.30;2.30;;;14.30;99.90;;;13.98;100.00;97299.78;4981473;28;20130;-79
2023/09/01 00:29:47;;;;;;;5.03;2.63;;;14.30;99.90;;;13.98;100.00;97299.78;4985179;28;20121;-78
2023/09/01 00:32:14;;;;;;;4.63;2.45;;;14.40;99.90;;;14.07;100.00;97299.25;4984457;28;20574;-78
2023/09/01 00:34:41;;;;;;;5.00;2.22;;;14.40;99.90;;;14.07;100.00;97303.59;4987123;28;20123;-79
2023/09/01 00:37:08;;;;;;;6.25;2.78;;;14.40;99.90;;;14.08;100.00;97305.28;4985628;28;20050;-78
2023/09/01 00:39:35;;;;;;;3.80;2.47;;;14.40;99.90;;;14.11;100.00;97305.91;4985852;28;20427;-79
2023/09/01 00:42:03;;;;;;;5.82;2.30;;;14.40;99.90;;;14.12;100.00;97306.78;4985155;28;20431;-79
2023/09/01 00:44:30;;;;;;;6.15;2.72;;;14.40;99.90;;;14.12;100.00;97305.00;4985676;28;20085;-79
2023/09/01 00:46:57;;;;;;;5.72;2.80;;;14.50;99.90;;;14.11;100.00;97308.53;4984870;28;20041;-80
2023/09/01 00:49:25;;;;;;;7.80;2.70;;;14.50;99.90;;;14.18;100.00;97316.84;5003057;28;20042;-79
2023/09/01 00:51:52;;;;;;;8.90;3.88;;;14.50;99.90;;;14.17;100.00;97305.56;4985690;28;20057;-78
2023/09/01 00:54:19;;;;;;;10.38;3.75;;;14.50;99.90;;;14.19;100.00;97306.31;4983543;28;20050;-80
2023/09/01 00:56:48;;;;;;;7.82;3.33;;;14.50;99.90;;;14.28;100.00;97311.88;4984353;28;20142;-78
2023/09/01 00:59:16;;;;;;;7.82;3.67;;;14.50;99.90;;;14.23;100.00;97294.75;4980594;28;20745;-78
2023/09/01 01:01:44;;;;;;;10.02;3.28;;;14.60;99.90;;;14.28;100.00;97304.91;4986559;28;20070;-79
2023/09/01 01:04:13;;;;;;;7.97;4.28;;;14.50;99.90;;;14.23;100.00;97307.81;4970950;28;20050;-79
2023/09/01 01:07:12;;;;;;;9.30;5.13;;;14.60;99.90;;;14.32;100.00;97298.56;4985398;28;20396;-79
2023/09/01 01:10:02;;;;;;;8.15;3.40;;;14.60;99.90;;;14.35;100.00;97303.59;4984908;28;20128;-79
2023/09/01 01:12:59;;;;;;;11.77;4.85;;;14.70;99.90;;;14.41;100.00;97295.38;4983842;28;20130;-78
2023/09/01 01:15:27;;;;;;;8.77;4.13;;;14.60;99.90;;;14.38;100.00;97292.94;4981951;28;20046;-78
2023/09/01 01:17:57;;;;;;;7.80;4.03;;;14.70;99.90;;;14.37;100.00;97282.63;4984807;28;20137;-79
2023/09/01 01:20:37;;;;;;;5.57;3.47;;;14.80;99.90;;;14.42;100.00;97278.75;4970373;28;20050;-79
2023/09/01 01:23:16;;;;;;;6.97;3.58;;;14.70;99.90;;;14.41;100.00;97268.41;4999555;28;20129;-79
2023/09/01 01:25:50;;;;;;;4.18;2.33;;;14.80;99.90;;;14.48;100.00;97271.47;4986221;28;20160;-79
2023/09/01 01:28:19;;;;;;;5.68;2.95;;;14.80;99.90;;;14.48;100.00;97266.25;4987047;28;20062;-78
2023/09/01 01:30:50;;;;;;;5.50;3.25;;;14.90;99.90;;;14.50;100.00;97260.00;4986596;28;20062;-78
2023/09/01 01:33:53;;;;;;;7.85;3.17;;;14.90;99.90;;;14.50;100.00;97270.44;4991424;28;20050;-79
2023/09/01 01:36:49;;;;;;;7.20;3.92;;;14.90;99.90;;;14.59;100.00;97274.28;4966474;28;20136;-78
2023/09/01 01:39:21;;;;;;;10.05;3.53;;;14.90;99.90;;;14.65;100.00;97268.66;4986322;28;20042;-78
2023/09/01 01:41:52;;;;;;;5.85;3.67;;;14.90;99.90;;;14.62;100.00;97272.31;4985362;28;20129;-79
2023/09/01 01:44:26;;;;;;;6.07;3.22;;;15.00;99.90;;;14.63;100.00;97266.13;4984404;28;20054;-79
2023/09/01 01:46:54;;;;;;;4.32;2.20;;;15.00;99.90;;;14.64;100.00;97261.75;4984658;28;20050;-78
2023/09/01 01:49:21;;;;;;;6.78;3.35;;;15.00;99.90;;;14.62;100.00;97255.81;4986926;28;20053;-78
2023/09/01 01:51:48;;;;;;;5.97;3.13;;;15.00;99.90;;;14.66;100.00;97254.66;4982136;28;20113;-80
2023/09/01 01:54:16;;;;;;;6.90;2.83;;;15.00;99.90;;;14.62;100.00;97246.19;4979487;28;20101;-79
2023/09/01 01:56:43;;;;;;;4.32;3.33;;;15.00;99.90;;;14.63;100.00;97255.69;4986672;28;20170;-80
2023/09/01 01:59:12;;;;;;;6.47;4.00;;;15.00;99.90;;;14.66;100.00;97256.44;4984774;28;20042;-80
2023/09/01 02:01:39;;;;;;;6.10;3.70;;;15.00;99.90;;;14.68;100.00;97257.19;4955723;28;20054;-79
2023/09/01 02:04:07;;;;;;;6.03;4.10;;;15.00;99.90;;;14.71;100.00;97252.59;4985021;28;20128;-79
2023/09/01 02:06:34;;;;;;;7.75;3.35;;;15.00;99.90;;;14.70;100.00;97252.69;4999418;28;20098;-79
2023/09/01 02:09:03;;;;;;;8.32;3.38;;;15.10;99.90;;;14.73;100.00;97262.94;4985881;28;20051;-79
2023/09/01 02:11:30;;;;;;;7.07;3.00;;;15.10;99.90;;;14.79;100.00;97263.38;4986695;28;20805;-78
2023/09/01 02:13:57;;;;;;;6.00;3.22;;;15.10;99.90;;;14.75;100.00;97261.91;4984689;28;20705;-78
2023/09/01 02:16:25;;;;;;;7.38;4.22;;;15.10;99.90;;;14.78;100.00;97258.25;4983963;28;20050;-79
2023/09/01 02:18:51;;;;;;;13.40;5.93;;;15.10;99.90;;;14.80;100.00;97261.59;4985656;28;20050;-79
2023/09/01 02:21:20;;;;;;;11.07;4.95;;;15.10;99.90;;;14.80;100.00;97257.25;4981499;28;20054;-79
2023/09/01 02:23:48;;;;;;;13.10;6.03;;;15.10;99.90;;;14.79;100.00;97258.16;4988818;28;20078;-81
2023/09/01 02:26:19;;;;;;;10.65;6.50;;;15.20;99.90;;;14.81;100.00;97252.84;4986139;28;20141;-79
2023/09/01 02:28:49;;;;;;;10.20;5.82;;;15.20;99.90;;;14.83;100.00;97251.81;5000504;28;20057;-79
2023/09/01 02:31:17;;;;;;;13.52;6.43;;;15.20;99.90;;;14.87;100.00;97262.03;4967674;28;20050;-79
2023/09/01 02:33:44;;;;;;;10.15;5.38;;;15.20;99.90;;;14.90;100.00;97254.84;5000281;28;20054;-79
2023/09/01 02:36:32;;;;;;;10.07;6.13;;;15.20;99.90;;;14.96;100.00;97253.59;4986062;28;20057;-79
2023/09/01 02:39:00;;;;;;;11.52;6.63;;;15.30;99.90;;;14.92;100.00;97250.38;4979170;28;20058;-78
2023/09/01 02:41:30;;;;;;;11.00;7.07;;;15.30;99.90;;;14.96;100.00;97254.47;4971827;28;20054;-79
2023/09/01 02:43:57;;;;;;;14.75;5.53;;;15.30;99.90;;;15.02;100.00;97251.44;4990752;28;20082;-79
2023/09/01 02:46:27;;;;;;;12.35;7.30;;;15.30;99.90;;;14.98;100.00;97252.56;5006552;28;20049;-79
2023/09/01 02:48:55;;;;;;;9.38;5.35;;;15.30;99.90;;;15.04;100.00;97251.34;4990081;28;20061;-80
2023/09/01 02:51:22;;;;;;;9.70;4.85;;;15.30;99.90;;;15.08;100.00;97250.19;4990406;28;20466;-80
2023/09/01 02:53:49;;;;;;;14.70;7.07;;;15.40;99.90;;;15.00;100.00;97250.69;4989964;28;20168;-81
2023/09/01 02:56:18;;;;;;;12.90;6.90;;;15.30;99.90;;;14.99;100.00;97249.03;4990130;28;20151;-80
2023/09/01 02:58:46;;;;;;;10.30;5.25;;;15.40;99.90;;;15.01;100.00;97247.16;5005073;28;20681;-80
2023/09/01 03:01:13;;;;;;;16.58;6.35;;;15.40;99.90;;;15.05;100.00;97245.16;4993497;28;20412;-80
2023/09/01 03:03:42;;;;;;;12.30;6.80;;;15.40;99.90;;;15.08;100.00;97252.00;4988669;28;20050;-80
2023/09/01 03:06:09;;;;;;;15.20;6.30;;;15.40;99.90;;;15.09;100.00;97254.47;4992720;28;20230;-81
2023/09/01 03:08:37;;;;;;;12.02;6.57;;;15.40;99.90;;;15.08;100.00;97249.38;4992431;28;20057;-80
2023/09/01 03:11:05;;;;;;;6.40;5.22;;;15.40;99.90;;;15.13;100.00;97255.97;4994085;28;20069;-81
2023/09/01 03:13:33;;;;;;;9.98;4.97;;;15.40;99.90;;;15.14;100.00;97257.63;4990638;28;20050;-80
2023/09/01 03:16:00;;;;;;;7.20;4.53;;;15.50;99.90;;;15.13;100.00;97247.28;4992493;28;20053;-79
2023/09/01 03:18:28;;;;;;;4.90;3.78;;;15.50;99.90;;;15.21;100.00;97253.69;5005415;28;20133;-78
2023/09/01 03:21:08;;;;;;;9.40;3.47;;;15.50;99.90;;;15.26;100.00;97262.06;4993127;28;20054;-78
2023/09/01 03:23:35;;;;;;;7.55;3.50;;;15.60;99.90;;;15.32;100.00;97262.56;4988352;28;20490;-78
2023/09/01 03:26:05;;;;;;;7.55;5.15;;;15.60;99.90;;;15.23;100.00;97259.63;4989407;28;20156;-79
2023/09/01 03:28:33;;;;;;;8.43;4.97;;;15.60;99.90;;;15.24;100.00;97253.47;4990311;28;20091;-79
2023/09/01 03:31:00;;;;;;;7.43;4.07;;;15.60;99.90;;;15.37;100.00;97252.63;4979177;28;20136;-79
2023/09/01 03:33:27;;;;;;;8.70;4.93;;;15.60;99.90;;;15.32;100.00;97254.72;4987538;28;20054;-80
2023/09/01 03:36:00;;;;;;;8.40;5.25;;;15.60;99.90;;;15.33;100.00;97259.88;5007159;28;20046;-79
2023/09/01 03:38:28;;;;;;;;;;;15.70;99.90;;;15.41;100.00;97262.78;4971974;28;20051;-79
2023/09/01 03:40:58;;;;;;;7.47;3.95;;;15.70;99.90;;;15.41;100.00;97268.03;4990789;28;19921;-79
2023/09/01 03:43:25;;;;;;;14.18;5.53;;;15.70;99.90;;;15.39;100.00;97269.91;4976929;28;20134;-80
2023/09/01 03:45:52;;;;;;;8.80;4.22;;;15.70;99.90;;;15.48;100.00;97261.44;4988542;28;20054;-80
2023/09/01 03:48:19;;;;;;;16.25;5.88;;;15.70;99.90;;;15.52;100.00;97256.84;4990972;28;20060;-79
2023/09/01 03:51:08;;;;;;;9.60;4.90;;;15.80;99.90;;;15.50;100.00;97260.50;4990049;28;20057;-80
2023/09/01 03:53:37;;;;;;;10.80;4.15;;;15.80;99.90;;;15.57;100.00;97259.97;4987536;28;20420;-79
2023/09/01 03:56:17;;;;;;;10.00;6.05;;;15.80;99.90;;;15.53;100.00;97276.84;5002492;28;20507;-79
2023/09/01 03:58:46;;;;;;;10.75;5.90;;;15.90;99.90;;;15.60;100.00;97275.50;4987142;28;20055;-79
2023/09/01 04:01:13;;;;;;;11.07;4.25;;;15.90;99.90;;;15.60;100.00;97269.41;4987906;28;20086;-79
2023/09/01 04:03:42;;;;;;;6.53;4.38;;;15.90;99.90;;;15.64;100.00;97270.88;4986946;28;20503;-80
2023/09/01 04:06:11;;;;;;;11.15;5.93;;;16.00;99.90;;;15.62;100.00;97270.13;4990076;28;20050;-78
2023/09/01 04:08:39;;;;;;;13.82;6.50;;;15.90;99.90;;;15.64;100.00;97263.00;4992696;28;20046;-80
2023/09/01 04:11:06;;;;;;;11.80;5.03;;;15.90;99.90;;;15.73;100.00;97269.44;5003622;28;20129;-79
2023/09/01 04:13:34;;;;;;;10.50;4.07;;;16.00;99.90;;;15.71;100.00;97269.53;4985476;28;20121;-81
2023/09/01 04:16:03;;;;;;;10.85;4.32;;;16.00;99.90;;;15.66;100.00;97263.75;4983726;28;20146;-79
2023/09/01 04:18:32;;;;;;;10.32;4.45;;;16.00;99.90;;;15.62;100.00;97267.50;4989128;28;20117;-80
2023/09/01 04:21:00;;;;;;;9.77;4.38;;;16.00;99.90;;;15.65;100.00;97270.78;4986026;28;20089;-80
2023/09/01 04:23:27;;;;;;;8.85;4.53;;;16.00;99.90;;;15.60;100.00;97267.63;4986720;28;20060;-79
2023/09/01 04:25:54;;;;;;;12.15;5.97;;;16.00;99.90;;;15.59;100.00;97260.72;4989101;28;20531;-78
2023/09/01 04:28:21;;;;;;;12.63;5.93;;;16.00;99.90;;;15.62;100.00;97260.53;4986611;28;20499;-79
2023/09/01 04:30:49;;;;;;;16.92;10.27;;;15.90;99.90;;;15.59;100.00;97262.50;4985725;28;20172;-80
2023/09/01 04:33:17;;;;;;;15.50;7.72;;;15.90;99.90;;;15.61;100.00;97268.47;4983438;28;20561;-79
2023/09/01 04:35:44;;;;;;;15.70;11.23;;;15.90;99.90;;;15.54;100.00;97264.59;5003924;28;20132;-79
2023/09/01 04:38:17;;;;;;;11.65;8.50;;;15.90;99.90;;;15.53;100.00;97263.75;4984470;28;20050;-80
2023/09/01 04:40:57;;;;;;;11.98;8.95;;;15.90;99.90;;;15.62;100.00;97272.75;4985217;28;20491;-80
2023/09/01 04:43:28;;;;;;;10.35;8.02;;;15.80;99.90;;;15.60;100.00;97275.50;4986696;28;20058;-80
2023/09/01 04:45:57;;;;;;;19.83;12.40;;;15.90;99.90;;;15.54;100.00;97282.91;4986646;28;20050;-80
2023/09/01 04:48:25;;;;;;;15.43;10.32;;;15.80;99.90;;;15.61;100.00;97274.53;4984075;28;20089;-80
2023/09/01 04:50:52;;;;;;;19.10;11.82;;;15.90;99.90;;;15.56;100.00;97286.25;4986253;28;20054;-80
2023/09/01 04:53:21;;;;;;;16.98;10.82;;;15.90;99.90;;;15.58;100.00;97292.22;4984929;28;20116;-80
2023/09/01 04:55:49;;;;;;;14.70;11.13;;;15.90;99.90;;;15.56;100.00;97294.94;4984938;28;20542;-79
2023/09/01 04:58:16;;;;;;;18.35;10.90;;;15.80;99.90;;;15.55;100.00;97297.66;4969578;28;20046;-79
2023/09/01 05:00:44;;;;;;;15.45;10.18;;;15.80;99.90;;;15.55;100.00;97295.03;4970769;28;20081;-80
2023/09/01 05:03:11;;;;;;;14.40;10.70;;;15.80;99.90;;;15.54;100.00;97294.19;5000431;28;20062;-79
2023/09/01 05:05:38;;;;;;;20.40;13.95;;;15.80;99.90;;;15.53;100.00;97289.06;4984802;28;20058;-78
2023/09/01 05:08:05;;;;;;;15.13;10.82;;;15.90;99.90;;;15.55;100.00;97290.63;4987178;28;20050;-80
2023/09/01 05:10:32;;;;;;;13.15;9.38;;;15.90;99.90;;;15.58;100.00;97300.06;4987677;28;20108;-78
2023/09/01 05:13:00;;;;;;;12.48;8.13;;;15.90;99.90;;;15.64;100.00;97297.03;4983694;28;20100;-80
2023/09/01 05:15:27;;;;;;;8.95;7.35;;;15.90;99.90;;;15.64;100.00;97289.19;4983771;28;20055;-78
2023/09/01 05:17:54;;;;;;;9.18;7.20;;;15.90;99.90;;;15.65;100.00;97290.88;4983282;28;20057;-80
2023/09/01 05:20:21;;;;;;;11.13;6.88;;;16.00;99.90;;;15.66;100.00;97288.13;4986540;28;20058;-80
2023/09/01 05:22:49;;;;;;;9.90;6.80;;;16.00;99.90;;;15.70;100.00;97283.53;4986634;28;20085;-79
2023/09/01 05:25:16;;;;;;;9.63;7.65;;;16.00;99.90;;;15.74;100.00;97298.13;4987881;28;20427;-79
2023/09/01 05:27:44;;;;;;;9.80;7.03;;;16.00;99.90;;;15.75;100.00;97312.88;4985604;28;20070;-81
2023/09/01 05:30:12;;;;;;;7.53;5.05;;;16.00;99.90;;;15.72;100.00;97309.66;4987971;28;20081;-79
2023/09/01 05:32:40;;;;;;;4.88;3.90;;;16.00;99.90;;;15.78;100.00;97314.44;4988313;28;20419;-79
2023/09/01 05:35:08;;;;;;;3.67;3.25;;;15.90;99.90;;;15.67;100.00;97309.94;4987572;28;20128;-80
2023/09/01 05:37:35;;;;;;;5.63;2.72;;;16.00;99.90;;;15.71;100.00;97314.00;4986236;28;20082;-79
2023/09/01 05:40:03;;;;;;;4.78;3.00;;;15.90;99.90;;;15.72;100.00;97304.41;4985793;28;20070;-79
2023/09/01 05:42:30;;;;;;;6.68;2.97;;;16.00;99.90;;;15.75;100.00;97325.13;4985188;28;20058;-79
2023/09/01 05:44:57;;;;;;;5.47;3.90;;;16.00;99.90;;;15.69;100.00;97314.09;4988453;28;20081;-79
2023/09/01 05:47:25;;;;;;;7.75;4.57;;;16.00;99.90;;;15.66;100.00;97314.28;4987057;28;20058;-80
2023/09/01 05:49:53;;;;;;;4.85;4.25;;;16.00;99.90;;;15.72;100.00;97318.31;4983231;28;20056;-79
2023/09/01 05:52:20;;;;;;;9.73;3.78;;;16.00;99.90;;;15.81;100.00;97320.31;4982646;28;20054;-79
2023/09/01 05:54:47;;;;;;;6.50;4.28;;;16.00;99.90;;;15.81;100.00;97320.31;4986757;28;20047;-79
2023/09/01 05:57:14;;;;;;;10.05;5.05;;;16.00;99.90;;;15.80;100.00;97325.66;4984331;28;20074;-79
2023/09/01 05:59:41;;;;;;;5.88;5.00;;;16.10;99.90;;;15.87;100.00;97330.38;4984158;28;20125;-78
2023/09/01 06:02:08;;;;;;;7.13;4.35;;;16.10;99.90;;;15.92;100.00;97335.31;4970093;28;20603;-79
2023/09/01 06:04:36;;;;;;;7.75;5.63;;;16.10;99.90;;;15.92;100.00;97335.31;4986369;28;20050;-80
2023/09/01 06:07:04;;;;;;;9.13;5.07;;;16.20;99.90;;;15.97;100.00;97335.00;4969090;28;20137;-79
2023/09/01 06:09:31;;;;;;;11.43;5.00;;;16.20;99.90;;;15.87;100.00;97342.59;4969114;28;20056;-79
2023/09/01 06:11:58;;;;;;;9.32;5.60;;;16.20;99.90;;;15.89;100.00;97336.31;4987395;28;20492;-79
2023/09/01 06:14:25;;;;;;;11.15;6.20;;;16.10;99.90;;;15.92;100.00;97344.91;4985503;28;20046;-80
2023/09/01 06:16:52;;;;;;;9.88;6.88;;;16.20;99.90;;;15.87;100.00;97351.31;4982353;28;20062;-78
2023/09/01 06:19:19;;;;;;;10.32;6.82;;;16.20;99.90;;;15.85;100.00;97355.81;4985966;28;20055;-79
2023/09/01 06:21:46;;;;;;;9.73;6.68;;;16.20;99.90;;;15.89;100.00;97349.41;4984861;28;20053;-79
2023/09/01 06:24:14;;;;;;;8.70;5.85;;;16.20;99.90;;;15.98;100.00;97366.28;4988491;28;20171;-78
2023/09/01 06:26:44;;;;;;;11.55;8.13;;;16.20;99.90;;;16.01;100.00;97367.84;4987426;28;20120;-79
2023/09/01 06:29:14;;;;;;;12.25;7.38;;;16.20;99.90;;;16.00;100.00;97368.81;4989044;28;20050;-80
2023/09/01 06:31:41;;;;;;;13.57;7.90;;;16.20;99.90;;;16.04;100.00;97373.72;4990947;28;20093;-78
2023/09/01 06:34:08;;;;;;;13.65;7.15;;;16.30;99.90;;;16.16;100.00;97373.84;4991478;28;20114;-79
2023/09/01 06:36:35;;;;;;;13.32;8.20;;;16.30;99.90;;;16.12;100.00;97377.59;4998136;28;20105;-77
2023/09/01 06:39:04;;;;;;;9.50;6.93;;;16.30;99.90;;;16.19;100.00;97382.28;4997768;28;20055;-79
2023/09/01 06:41:31;;;;;;;10.50;7.78;;;16.30;99.90;;;16.25;100.00;97381.06;4970013;28;20063;-79
2023/09/01 06:44:00;;;;;;;9.80;7.18;;;16.30;99.90;;;16.24;100.00;97376.78;4983007;28;20145;-79
2023/09/01 06:46:28;;;;;;;12.25;7.82;;;16.40;99.90;;;16.34;100.00;97385.66;4986012;28;20145;-79
2023/09/01 06:48:55;;;;;;;13.48;7.35;;;16.40;99.90;;;16.24;100.00;97382.00;4983001;28;20047;-80
2023/09/01 06:51:23;;;;;;;13.55;8.07;;;16.40;99.90;;;16.24;100.00;97379.41;4983953;28;20751;-79
2023/09/01 06:53:50;;;;;;;9.32;6.72;;;16.50;99.90;;;16.19;100.00;97389.31;4980150;28;20068;-79
2023/09/01 06:56:18;;;;;;;8.48;5.80;;;16.50;99.90;;;16.20;100.00;97381.38;4985923;28;20396;-80
2023/09/01 06:58:44;;;;;;;12.55;7.05;;;16.50;99.90;;;16.22;100.00;97395.19;4984209;28;20569;-79
2023/09/01 07:01:15;;;;;;;11.30;6.18;;;16.40;99.90;;;16.33;100.00;97389.22;4985748;28;20809;-79
2023/09/01 07:03:44;;;;;;;8.48;6.10;;;16.50;99.90;;;16.33;100.00;97393.59;4983447;28;20050;-78
2023/09/01 07:06:11;;;;;;;11.10;6.38;;;16.50;99.90;;;16.35;100.00;97396.97;4984214;28;20439;-78
2023/09/01 07:08:38;;;;;;;8.95;6.30;;;16.60;99.90;;;16.37;100.00;97382.81;4985567;28;20050;-78
2023/09/01 07:11:10;;;;;;;9.68;7.20;;;16.60;99.90;;;16.60;100.00;97381.22;4982638;28;20050;-79
2023/09/01 07:13:37;;;;;;;11.70;5.85;;;16.60;99.90;;;16.78;100.00;97392.19;4983829;28;20050;-79
2023/09/01 07:16:05;;;;;;;7.97;4.97;;;16.70;99.90;;;16.69;100.00;97392.84;4983558;28;20050;-80
2023/09/01 07:18:33;;;;;;;10.75;5.60;;;16.70;99.90;;;16.66;100.00;97388.66;4983654;28;20415;-79
2023/09/01 07:21:01;;;;;;;10.13;6.15;;;16.70;99.90;;;16.73;100.00;97389.88;4984361;28;20515;-78
2023/09/01 07:23:30;;;;;;;8.07;5.00;;;16.80;99.90;;;16.72;100.00;97401.34;4987775;28;20054;-77
2023/09/01 07:25:59;;;;;;;8.75;5.72;;;16.70;99.90;;;16.76;100.00;97395.88;4954806;28;20483;-79
2023/09/01 07:28:26;;;;;;;7.00;5.35;;;16.70;99.90;;;16.78;100.00;97405.28;5001322;28;20426;-78
2023/09/01 07:30:53;;;;;;;8.43;4.47;;;16.80;99.90;;;16.77;100.00;97405.41;4985252;28;20805;-77
2023/09/01 07:33:20;;;;;;;7.68;4.35;;;16.90;99.90;;;16.65;100.00;97407.94;4984983;28;20050;-79
2023/09/01 07:35:50;;;;;;;7.85;4.85;;;16.80;99.90;;;16.75;100.00;97405.53;4984282;28;20085;-78
2023/09/01 07:38:17;;;;;;;6.03;4.50;;;16.90;99.90;;;16.77;100.00;97410.66;4974937;28;20133;-79
2023/09/01 07:40:46;;;;;;;11.98;7.32;;;16.90;99.90;;;16.76;100.00;97407.19;4986758;28;20046;-78
2023/09/01 07:43:15;;;;;;;10.50;5.13;;;16.90;99.90;;;16.84;100.00;97412.75;4984913;28;20074;-78
2023/09/01 07:45:43;;;;;;;6.93;4.40;;;17.00;99.90;;;16.79;100.00;97409.63;4974954;28;20046;-79
2023/09/01 07:48:10;;;;;;;11.57;4.30;;;17.00;99.90;;;16.73;100.00;97407.41;4986916;28;20057;-80
2023/09/01 07:50:48;;;;;;;10.18;4.03;;;17.00;99.90;;;16.78;100.00;97412.31;4988036;28;20089;-80
2023/09/01 07:53:15;;;;;;;6.80;3.97;;;17.00;99.90;;;16.67;100.00;97413.06;4990218;28;20046;-79
2023/09/01 07:55:43;;;;;;;7.68;3.72;;;16.90;99.90;;;16.71;100.00;97409.28;5004046;28;20046;-79
2023/09/01 07:58:10;;;;;;;6.00;2.53;;;16.90;99.90;;;16.71;100.00;97420.59;4985226;28;20472;-78
2023/09/01 08:00:39;;;;;;;6.10;2.50;;;16.90;99.90;;;16.65;100.00;97410.56;4988173;28;20097;-78
2023/09/01 08:03:10;;;;;;;5.15;1.83;;;16.90;99.90;;;16.77;100.00;97424.59;4986084;28;20577;-78
2023/09/01 08:05:42;;;;;;;5.28;2.05;;;16.90;99.90;;;16.88;100.00;97419.47;4990127;28;20050;-78
2023/09/01 08:08:13;;;;;;;4.40;1.85;;;17.00;99.90;;;16.79;100.00;97420.13;4989533;28;20135;-79
2023/09/01 08:10:42;;;;;;;4.40;2.80;;;17.00;99.90;;;16.85;100.00;97422.28;4985671;28;20061;-78
2023/09/01 08:13:10;;;;;;;7.13;2.80;;;17.00;99.90;;;16.78;100.00;97423.63;4988439;28;20046;-79
2023/09/01 08:15:37;;;;;;;6.55;2.80;;;17.00;99.90;;;16.80;100.00;97411.28;4987626;28;20042;-77
2023/09/01 08:18:05;;;;;;;4.50;2.33;;;17.00;99.90;;;16.89;100.00;97425.53;4985824;28;20067;-78
2023/09/01 08:20:32;;;;;;;8.32;3.13;;;17.00;99.90;;;16.83;100.00;97426.84;4986167;28;20046;-78
2023/09/01 08:23:01;;;;;;;6.90;3.47;;;17.10;99.90;;;16.83;100.00;97423.34;4969611;28;20089;-83
2023/09/01 08:25:28;;;;;;;5.68;2.50;;;17.10;99.90;;;16.84;100.00;97432.91;4986166;28;20065;-79
2023/09/01 08:27:56;;;;;;;6.78;2.63;;;17.10;99.90;;;16.84;100.00;97435.53;4985993;28;20078;-79
2023/09/01 08:30:26;;;;;;;5.45;2.30;;;17.10;99.90;;;16.84;100.00;97435.53;4984972;28;20121;-78
2023/09/01 08:32:54;;;;;;;7.40;2.25;;;17.10;99.90;;;16.98;100.00;97442.41;4977176;28;20854;-80
2023/09/01 08:35:21;;;;;;;4.85;2.90;;;17.10;99.90;;;17.04;100.00;97434.97;4980836;28;20046;-81
2023/09/01 08:37:53;;;;;;;4.85;2.15;;;17.20;99.90;;;17.17;100.00;97434.06;4959416;28;20054;-81
2023/09/01 08:40:21;;;;;;;4.27;1.77;;;17.20;99.90;;;17.35;100.00;97428.31;4970922;28;20054;-80
2023/09/01 08:42:50;;;;;;;3.95;1.60;;;17.30;99.90;;;17.23;100.00;97442.34;4968080;28;20063;-81
2023/09/01 08:45:19;;;;;;;5.47;1.98;;;17.40;99.90;;;17.16;100.00;97433.25;4942313;28;20050;-82
2023/09/01 08:47:49;;;;;;;3.72;1.90;;;17.40;99.90;;;17.13;100.00;97452.66;4975055;28;20085;-79
2023/09/01 08:50:19;;;;;;;5.93;1.80;;;17.40;99.90;;;17.27;100.00;97435.09;4979931;28;20048;-77
2023/09/01 08:52:48;;;;;;;3.90;1.50;;;17.40;99.90;;;17.23;100.00;97442.34;4971966;28;20054;-79
2023/09/01 08:55:17;;;;;;;5.22;2.28;;;17.40;99.90;;;17.22;100.00;97438.06;4986877;28;20043;-80
2023/09/01 08:57:48;;;;;;;4.38;1.88;;;17.40;99.90;;;17.23;100.00;97444.13;4992490;28;20069;-78
2023/09/01 09:00:16;;;;;;;5.20;2.05;;;17.40;99.90;;;17.31;100.00;97447.88;5003356;28;20050;-75
2023/09/01 09:02:45;;;;;;;4.15;1.95;;;17.40;99.90;;;17.33;100.00;97432.00;4991368;28;20242;-78
2023/09/01 09:05:34;;;;;;;5.78;2.03;;;17.50;99.90;;;17.28;100.00;97445.47;4984161;28;20728;-80
2023/09/01 09:08:06;;;;;;;4.35;2.08;;;17.50;99.90;;;17.28;100.00;97442.84;4956131;28;20129;-78
2023/09/01 09:10:35;;;;;;;2.17;1.40;;;17.50;99.90;;;17.60;100.00;97441.47;4986235;28;20113;-78
2023/09/01 09:13:29;;;;;;;6.45;2.00;;;17.40;99.90;;;17.65;100.00;97434.06;4967014;28;20049;-78
2023/09/01 09:16:07;;;;;;;4.38;2.33;;;17.50;99.90;;;17.58;100.00;97440.72;4980589;28;20066;-79
2023/09/01 09:18:37;;;;;;;4.53;1.90;;;17.60;99.90;;;17.59;100.00;97440.63;4983189;28;20049;-78
2023/09/01 09:21:30;;;;;;;2.67;1.70;;;17.70;99.90;;;17.55;100.00;97445.25;5000412;28;20046;-78
2023/09/01 09:24:00;;;;;;;17.85;2.25;;;17.70;99.90;;;17.62;100.00;97452.69;5004024;28;20496;-80
2023/09/01 09:26:46;;;;;;;2.67;1.88;;;17.80;99.90;;;17.64;100.00;97456.88;5001163;28;20053;-79
2023/09/01 09:29:15;;;;;;;3.13;1.60;;;17.80;99.90;;;17.45;100.00;97456.56;4973092;28;20805;-80
2023/09/01 09:31:44;;;;;;;3.13;1.33;;;17.70;99.90;;;17.49;100.00;97461.47;4985357;28;20108;-79
2023/09/01 09:34:18;;;;;;;2.78;1.10;;;17.60;99.90;;;17.34;100.00;97454.69;4986756;28;20093;-78
2023/09/01 09:36:48;;;;;;;2.40;1.38;;;17.40;99.90;;;17.21;100.00;97461.75;4970870;28;20074;-79
2023/09/01 09:39:34;;;;;;;2.88;1.00;;;17.40;99.90;;;17.12;100.00;97464.06;4988448;28;20056;-79
2023/09/01 09:42:01;;;;;;;2.03;1.10;;;17.30;99.90;;;17.17;100.00;97465.53;4986872;28;20051;-78
2023/09/01 09:44:33;;;;;;;2.78;1.60;;;17.30;99.90;;;17.21;100.00;97465.22;4988459;28;20521;-78
2023/09/01 09:47:09;;;;;;;3.25;1.65;;;17.30;99.90;;;17.11;100.00;97470.28;4987011;28;20116;-80
2023/09/01 09:49:38;;;;;;;3.75;1.70;;;17.30;99.90;;;17.21;100.00;97478.31;4986751;28;20047;-78
2023/09/01 09:52:09;;;;;;;2.92;1.13;;;17.20;99.90;;;17.20;100.00;97478.47;4981945;28;20555;-77
2023/09/01 09:54:39;;;;;;;2.17;1.20;;;17.30;99.90;;;17.25;100.00;97473.72;4985608;28;20057;-78
2023/09/01 09:57:14;;;;;;;3.17;1.10;;;17.40;99.90;;;17.43;100.00;97480.25;4987198;28;20582;-81
2023/09/01 10:00:10;;;;;;;4.78;1.60;;;17.40;99.90;;;17.74;100.00;97486.75;4980172;28;20046;-80
2023/09/01 10:02:48;;;;;;;4.53;1.60;;;17.70;99.90;;;18.06;100.00;97495.84;4983056;28;20134;-78
2023/09/01 10:05:16;;;;;;;2.42;1.30;;;18.10;99.90;;;18.54;100.00;97479.97;4969732;28;20104;-79
2023/09/01 10:07:43;;;;;;;2.80;1.23;;;18.30;99.90;;;19.27;100.00;97477.84;4975285;28;20050;-79
2023/09/01 10:10:12;;;;;;;3.88;1.23;;;18.80;99.90;;;19.44;100.00;97465.00;4988566;28;20086;-84
2023/09/01 10:12:40;;;;;;;2.33;0.95;;;19.00;99.90;;;19.70;100.00;97446.28;4987503;28;20419;-78
2023/09/01 10:15:12;;;;;;;2.65;1.00;;;19.30;99.90;;;19.33;100.00;97451.88;4964188;28;20042;-79
2023/09/01 10:17:40;;;;;;;2.40;1.00;;;19.40;99.90;;;19.55;100.00;97453.63;4986686;28;20132;-80
2023/09/01 10:20:09;;;;;;;3.55;1.20;;;19.40;99.90;;;19.33;100.00;97446.63;5000196;28;20425;-78